Aviation Digital Data Service (ADDS)

Output produced by METARs form (1226 UTC 02 October 2014)
found at http://www.aviationweather.gov/adds/metars/
 
KROW 021151Z 00000KT 10SM CLR 12/07 A2996 RMK AO2 SLP093 T01220067 10156 20100 53023
KROW 021051Z AUTO 32004KT 10SM CLR 14/06 A2992 RMK AO2 SLP073 T01440056
KROW 020951Z AUTO 26005KT 10SM CLR 11/07 A2989 RMK AO2 SLP071 T01110072
KROW 020851Z AUTO 00000KT 10SM CLR 12/07 A2989 RMK AO2 SLP067 T01170072 53014
KROW 020751Z AUTO 00000KT 10SM CLR 13/07 A2986 RMK AO2 SLP057 T01330067
KROW 020651Z AUTO 21006KT 10SM CLR 14/06 A2984 RMK AO2 SLP050 T01390061 402890100
KROW 020551Z AUTO 22009KT 10SM CLR 14/07 A2984 RMK AO2 SLP052 T01440067 10278 20133 56002
KROW 020451Z AUTO 23004KT 10SM CLR 16/06 A2984 RMK AO2 SLP053 T01610061
KROW 020351Z AUTO 28009KT 10SM CLR 18/06 A2984 RMK AO2 SLP052 T01830061
KROW 020251Z AUTO 27009KT 10SM CLR 22/05 A2985 RMK AO2 SLP054 T02170050 53019
KROW 020151Z 23012KT 10SM CLR 20/10 A2981 RMK AO2 SLP048 T02000100
KROW 020051Z 15009KT 10SM CLR 23/07 A2979 RMK AO2 SLP038 T02330072
KROW 012351Z 10006KT 10SM CLR 28/09 A2978 RMK AO2 SLP032 T02780089 10289 20239 56010
KROW 012251Z 15011KT 10SM CLR 28/06 A2978 RMK AO2 SLP031 T02830061
KROW 012151Z 12005KT 10SM CLR 28/04 A2980 RMK AO2 SLP037 T02780044
KROW 012051Z 16006KT 10SM CLR 28/04 A2982 RMK AO2 SLP041 T02780039 58025
KROW 011951Z VRB06KT 10SM CLR 27/05 A2984 RMK AO2 SLP050 T02720050
KROW 011851Z VRB03KT 10SM CLR 27/06 A2988 RMK AO2 SLP059 T02670056
KROW 011751Z VRB03KT 10SM CLR 24/07 A2990 RMK AO2 SLP068 T02440072 10244 20100 58004
KROW 011651Z 05004KT 10SM CLR 23/08 A2992 RMK AO2 SLP077 T02280083
KROW 011551Z 01003KT 10SM CLR 20/09 A2992 RMK AO2 SLP078 T02000094
KROW 011451Z 02005KT 10SM CLR 17/08 A2991 RMK AO2 SLP079 T01720078 51012
KROW 011351Z 00000KT 10SM CLR 14/08 A2990 RMK AO2 SLP075 T01440078
KROW 011251Z 27004KT 10SM CLR 12/07 A2989 RMK AO2 SLP071 T01170072
KROW 021120Z 0212/0312 34008KT P6SM SKC 
     TEMPO 0215/0219 35010G18KT 
     FM022300 VRB06KT P6SM SKC